Time;durP1;ratioP1;P1;durP2;ratioP2;P2;SDS_P1;SDS_P2;PMS_P1;PMS_P2;Temp;Humidity;BMP_temperature;BMP_pressure;BME280_temperature;BME280_humidity;BME280_pressure;Samples;Min_cycle;Max_cycle;Signal;HPM_P1;HPM_P2
2021/04/26 00:00:21;;;;;;;10.47;5.67;;;7.10;99.90;;;;;;5073721;28;20533;-76
2021/04/26 00:02:46;;;;;;;10.03;5.03;;;7.00;99.90;;;;;;5075021;28;20523;-76
2021/04/26 00:05:14;;;;;;;10.43;4.70;;;7.10;99.90;;;;;;5074807;28;20483;-76
2021/04/26 00:07:40;;;;;;;5.63;5.00;;;7.00;99.90;;;;;;5075466;28;20162;-74
2021/04/26 00:10:07;;;;;;;8.63;4.80;;;7.00;99.90;;;;;;5073412;28;20439;-74
2021/04/26 00:12:33;;;;;;;7.87;5.03;;;7.00;99.90;;;;;;5074408;28;20193;-74
2021/04/26 00:14:58;;;;;;;6.70;5.70;;;7.00;99.90;;;;;;5074322;28;20447;-74
2021/04/26 00:17:24;;;;;;;6.27;4.63;;;6.90;99.90;;;;;;5073131;28;20543;-76
2021/04/26 00:19:49;;;;;;;14.27;4.57;;;7.00;99.90;;;;;;5073779;28;20202;-76
2021/04/26 00:22:15;;;;;;;6.80;4.10;;;7.00;99.90;;;;;;5073405;28;20663;-74
2021/04/26 00:24:41;;;;;;;12.30;5.20;;;7.00;99.90;;;;;;5076946;28;20714;-74
2021/04/26 00:27:07;;;;;;;6.50;4.53;;;7.00;99.90;;;;;;5084969;28;20283;-74
2021/04/26 00:29:33;;;;;;;8.23;5.00;;;7.00;99.90;;;;;;5083651;28;20431;-74
2021/04/26 00:31:59;;;;;;;7.03;4.67;;;7.00;99.90;;;;;;5091199;28;20442;-73
2021/04/26 00:34:24;;;;;;;5.03;4.47;;;7.00;99.90;;;;;;5092169;28;20649;-74
2021/04/26 00:36:50;;;;;;;4.63;4.20;;;6.90;99.90;;;;;;5077416;28;20215;-74
2021/04/26 00:39:15;;;;;;;10.40;4.47;;;7.00;99.90;;;;;;5073469;28;20540;-73
2021/04/26 00:41:41;;;;;;;6.17;5.03;;;6.90;99.90;;;;;;5073846;28;20209;-74
2021/04/26 00:44:07;;;;;;;5.93;4.00;;;6.90;99.90;;;;;;5073534;28;20194;-74
2021/04/26 00:46:32;;;;;;;5.83;4.53;;;6.90;99.90;;;;;;5076106;28;20180;-74
2021/04/26 00:48:58;;;;;;;7.60;4.80;;;6.90;99.90;;;;;;5090769;28;20189;-74
2021/04/26 00:51:24;;;;;;;7.10;4.83;;;6.80;99.90;;;;;;5090623;28;20246;-74
2021/04/26 00:53:50;;;;;;;5.43;4.30;;;6.80;99.90;;;;;;5080144;28;20232;-74
2021/04/26 00:56:16;;;;;;;8.53;4.60;;;6.70;99.90;;;;;;5078149;28;20555;-74
2021/04/26 00:58:42;;;;;;;5.17;4.67;;;6.60;99.90;;;;;;5081623;28;20431;-74
2021/04/26 01:01:08;;;;;;;9.97;4.93;;;6.60;99.90;;;;;;5091591;28;20459;-74
2021/04/26 01:03:33;;;;;;;7.83;4.53;;;6.50;99.90;;;;;;5092139;28;20190;-74
2021/04/26 01:05:59;;;;;;;8.10;5.97;;;6.50;99.90;;;;;;5071557;28;20436;-73
2021/04/26 01:08:24;;;;;;;6.47;4.47;;;6.50;99.90;;;;;;5078501;28;20185;-74
2021/04/26 01:10:52;;;;;;;10.33;5.20;;;6.50;99.90;;;;;;5084978;28;20177;-74
2021/04/26 01:13:51;;;;;;;13.07;5.10;;;6.40;99.90;;;;;;5093123;28;20189;-74
2021/04/26 01:16:35;;;;;;;4.50;3.70;;;6.30;99.90;;;;;;5073553;28;22393;-74
2021/04/26 01:19:26;;;;;;;9.77;5.63;;;6.20;99.90;;;;;;5084504;28;20979;-74
2021/04/26 01:22:52;;;;;;;11.93;5.07;;;6.20;99.90;;;;;;5086407;28;20439;-74
2021/04/26 01:25:21;;;;;;;14.00;5.63;;;6.20;99.90;;;;;;5083279;28;20533;-73
2021/04/26 01:27:47;;;;;;;16.83;5.67;;;6.20;99.90;;;;;;5086906;28;20435;-74
2021/04/26 01:30:17;;;;;;;8.17;4.90;;;6.10;99.90;;;;;;5088008;28;20423;-75
2021/04/26 01:32:48;;;;;;;5.67;4.60;;;6.10;99.90;;;;;;5087223;28;20795;-74
2021/04/26 01:35:17;;;;;;;17.13;5.00;;;6.00;99.90;;;;;;5084831;28;20455;-74
2021/04/26 01:37:45;;;;;;;13.03;5.37;;;6.00;99.90;;;;;;5078069;28;20419;-74
2021/04/26 01:40:13;;;;;;;6.87;4.80;;;5.90;99.90;;;;;;5071853;28;20463;-74
2021/04/26 01:42:43;;;;;;;7.10;4.87;;;5.90;99.90;;;;;;5084885;28;20984;-74
2021/04/26 01:45:12;;;;;;;11.53;4.47;;;5.80;99.90;;;;;;5079367;28;20497;-73
2021/04/26 01:47:39;;;;;;;10.10;4.67;;;5.90;99.90;;;;;;5074168;28;20523;-73
2021/04/26 01:50:09;;;;;;;5.03;4.57;;;5.90;99.90;;;;;;5072101;28;20438;-73
2021/04/26 01:52:36;;;;;;;14.10;4.60;;;5.90;99.90;;;;;;5072558;28;20454;-74
2021/04/26 01:55:04;;;;;;;7.87;4.90;;;5.80;99.90;;;;;;5070290;28;20474;-73
2021/04/26 01:57:31;;;;;;;9.00;5.83;;;5.80;99.90;;;;;;5086299;28;20950;-74
2021/04/26 01:59:59;;;;;;;7.80;5.17;;;5.80;99.90;;;;;;5078725;28;20486;-74
2021/04/26 02:02:25;;;;;;;10.53;7.40;;;5.70;99.90;;;;;;5079951;28;20447;-74
2021/04/26 02:04:52;;;;;;;14.07;6.80;;;5.70;99.90;;;;;;5076624;28;20435;-74
2021/04/26 02:07:19;;;;;;;16.80;5.50;;;5.60;99.90;;;;;;5070938;28;20412;-73
2021/04/26 02:09:45;;;;;;;10.87;5.03;;;5.60;99.90;;;;;;5079022;28;20438;-74
2021/04/26 02:12:13;;;;;;;9.10;4.87;;;5.70;99.90;;;;;;5093089;28;20438;-74
2021/04/26 02:14:40;;;;;;;5.57;4.57;;;5.60;99.90;;;;;;5070985;28;20488;-74
2021/04/26 02:17:06;;;;;;;8.43;4.57;;;5.60;99.90;;;;;;5073225;28;20928;-74
2021/04/26 02:19:32;;;;;;;9.50;5.40;;;5.50;99.90;;;;;;5083228;28;20454;-74
2021/04/26 02:21:58;;;;;;;14.80;5.10;;;5.50;99.90;;;;;;5085663;28;20241;-74
2021/04/26 02:24:24;;;;;;;6.30;3.90;;;5.40;99.90;;;;;;5077298;28;20510;-73
2021/04/26 02:26:50;;;;;;;7.93;4.60;;;5.40;99.90;;;;;;5072943;28;20551;-74
2021/04/26 02:29:15;;;;;;;8.23;5.27;;;5.40;99.90;;;;;;5061135;28;20746;-73
2021/04/26 02:31:44;;;;;;;8.33;4.90;;;5.40;99.90;;;;;;5052855;28;20536;-73
2021/04/26 02:34:17;;;;;;;8.20;5.60;;;5.40;99.90;;;;;;5059272;28;20201;-74
2021/04/26 02:36:47;;;;;;;10.23;5.47;;;5.40;99.90;;;;;;5071451;28;20423;-74
2021/04/26 02:39:15;;;;;;;10.90;4.80;;;5.40;99.90;;;;;;5073225;28;20754;-74
2021/04/26 02:41:43;;;;;;;13.03;4.37;;;5.30;99.90;;;;;;5072019;28;20443;-73
2021/04/26 02:44:17;;;;;;;9.57;5.30;;;5.20;99.90;;;;;;5073150;28;20446;-73
2021/04/26 02:46:43;;;;;;;12.50;5.07;;;5.20;99.90;;;;;;5092287;28;20468;-74
2021/04/26 02:49:10;;;;;;;5.93;4.37;;;5.20;99.90;;;;;;5090841;28;20433;-74
2021/04/26 02:51:37;;;;;;;6.50;4.43;;;5.20;99.90;;;;;;5078710;28;20419;-74
2021/04/26 02:54:05;;;;;;;17.37;4.70;;;5.20;99.90;;;;;;5072315;28;20542;-73
2021/04/26 02:56:35;;;;;;;5.40;4.80;;;5.20;99.90;;;;;;5071730;28;20774;-73
2021/04/26 02:59:01;;;;;;;14.57;8.70;;;5.20;99.90;;;;;;5077677;28;20424;-72
2021/04/26 03:01:27;;;;;;;21.80;11.10;;;5.20;99.90;;;;;;5092818;28;20518;-73
2021/04/26 03:03:54;;;;;;;10.30;8.03;;;5.10;99.90;;;;;;5089864;28;20455;-76
2021/04/26 03:06:21;;;;;;;11.83;7.53;;;5.10;99.90;;;;;;5076242;28;20222;-76
2021/04/26 03:08:46;;;;;;;11.43;5.10;;;5.10;99.90;;;;;;5076640;28;20431;-74
2021/04/26 03:11:14;;;;;;;18.30;5.93;;;5.00;99.90;;;;;;5075583;28;20445;-76
2021/04/26 03:13:40;;;;;;;7.97;5.70;;;5.00;99.90;;;;;;5076197;28;20443;-74
2021/04/26 03:16:07;;;;;;;9.53;5.27;;;5.00;99.90;;;;;;5094954;28;20438;-73
2021/04/26 03:18:33;;;;;;;11.90;6.53;;;4.90;99.90;;;;;;5093483;28;20431;-74
2021/04/26 03:21:06;;;;;;;19.13;10.40;;;4.90;99.90;;;;;;5089620;28;20550;-73
2021/04/26 03:23:31;;;;;;;20.37;11.50;;;4.90;99.90;;;;;;5085091;28;20484;-74
2021/04/26 03:25:59;;;;;;;9.20;7.20;;;4.90;99.90;;;;;;5087915;28;20442;-74
2021/04/26 03:28:25;;;;;;;14.20;6.73;;;4.80;99.90;;;;;;5089241;28;20267;-74
2021/04/26 03:30:51;;;;;;;9.20;5.80;;;4.80;99.90;;;;;;5082382;28;20431;-76
2021/04/26 03:33:18;;;;;;;9.40;7.30;;;4.80;99.90;;;;;;5083877;28;20857;-76
2021/04/26 03:35:44;;;;;;;7.50;5.47;;;4.80;99.90;;;;;;5093632;28;20527;-73
2021/04/26 03:38:14;;;;;;;10.83;5.93;;;4.80;99.90;;;;;;5095804;28;20463;-75
2021/04/26 03:40:41;;;;;;;9.77;6.03;;;4.80;99.90;;;;;;5072996;28;20463;-74
2021/04/26 03:43:06;;;;;;;11.70;5.30;;;4.80;99.90;;;;;;5090527;28;20454;-73
2021/04/26 03:45:32;;;;;;;8.93;6.20;;;4.80;99.90;;;;;;5088545;28;20427;-76
2021/04/26 03:47:58;;;;;;;11.07;5.30;;;4.70;99.90;;;;;;5094643;28;20176;-74
2021/04/26 03:50:25;;;;;;;8.20;5.43;;;4.70;99.90;;;;;;5079963;28;20442;-74
2021/04/26 03:52:51;;;;;;;9.63;5.77;;;4.70;99.90;;;;;;5093034;28;20201;-73
2021/04/26 03:55:19;;;;;;;5.90;5.13;;;4.70;99.90;;;;;;5085070;28;20514;-74
2021/04/26 03:57:46;;;;;;;7.40;6.00;;;4.60;99.90;;;;;;5092982;28;20482;-76
2021/04/26 04:00:13;;;;;;;10.03;6.03;;;4.60;99.90;;;;;;5087992;28;20502;-75
2021/04/26 04:02:39;;;;;;;12.03;7.33;;;4.50;99.90;;;;;;5076118;28;20548;-73
2021/04/26 04:05:06;;;;;;;11.17;5.77;;;4.50;99.90;;;;;;5079664;28;20423;-73
2021/04/26 04:07:33;;;;;;;8.40;5.50;;;4.60;99.90;;;;;;5081315;28;20435;-75
2021/04/26 04:09:59;;;;;;;7.60;5.30;;;4.50;99.90;;;;;;5093349;28;20433;-75
2021/04/26 04:12:24;;;;;;;15.63;7.30;;;4.50;99.90;;;;;;5093247;28;20433;-76
2021/04/26 04:14:50;;;;;;;10.53;6.10;;;4.50;99.90;;;;;;5091763;28;20209;-73
2021/04/26 04:17:16;;;;;;;7.13;5.30;;;4.50;99.90;;;;;;5091590;28;20535;-73
2021/04/26 04:19:44;;;;;;;7.23;5.87;;;4.40;99.90;;;;;;5072115;28;20637;-73
2021/04/26 04:22:09;;;;;;;9.90;6.20;;;4.50;99.90;;;;;;5075497;28;20184;-73
2021/04/26 04:24:36;;;;;;;12.00;5.53;;;4.50;99.90;;;;;;5073111;28;20428;-74
2021/04/26 04:27:01;;;;;;;22.00;13.60;;;4.50;99.90;;;;;;5078631;28;20200;-76
2021/04/26 04:29:27;;;;;;;24.27;11.53;;;4.50;99.90;;;;;;5071490;28;20473;-73
2021/04/26 04:31:52;;;;;;;10.63;5.77;;;4.60;99.90;;;;;;5075361;28;20241;-73
2021/04/26 04:34:18;;;;;;;9.80;6.10;;;4.50;99.90;;;;;;5084178;28;20177;-73
2021/04/26 04:36:44;;;;;;;13.60;6.73;;;4.60;99.90;;;;;;5093437;28;20200;-74
2021/04/26 04:39:10;;;;;;;8.83;6.60;;;4.60;99.90;;;;;;5087319;28;20188;-74
2021/04/26 04:41:35;;;;;;;9.90;6.20;;;4.60;99.90;;;;;;5093930;28;20515;-76
2021/04/26 04:44:01;;;;;;;15.93;6.13;;;4.60;99.90;;;;;;5085897;28;20196;-73
2021/04/26 04:46:28;;;;;;;13.23;6.90;;;4.60;99.90;;;;;;5086691;28;20704;-75
2021/04/26 04:48:54;;;;;;;8.80;6.37;;;4.70;99.90;;;;;;5087860;28;20172;-75
2021/04/26 04:51:19;;;;;;;17.20;7.27;;;4.70;99.90;;;;;;5094309;28;20407;-75
2021/04/26 04:53:45;;;;;;;11.87;6.17;;;4.70;99.90;;;;;;5088013;28;20212;-76
2021/04/26 04:56:10;;;;;;;12.90;7.00;;;4.60;99.90;;;;;;5089088;28;20188;-76
2021/04/26 04:58:36;;;;;;;10.37;6.63;;;4.60;99.90;;;;;;5091919;28;20177;-76
2021/04/26 05:01:01;;;;;;;8.10;5.70;;;4.70;99.90;;;;;;5084976;28;20209;-76
2021/04/26 05:03:27;;;;;;;15.33;7.00;;;4.80;99.90;;;;;;5092821;28;20192;-76
2021/04/26 05:05:52;;;;;;;12.80;6.37;;;4.80;99.90;;;;;;5094650;28;20834;-76
2021/04/26 05:08:18;;;;;;;14.63;6.33;;;4.90;99.90;;;;;;5094197;28;20248;-74
2021/04/26 05:10:43;;;;;;;8.40;6.50;;;5.00;99.90;;;;;;5088580;28;20264;-73
2021/04/26 05:13:09;;;;;;;8.00;5.77;;;5.10;99.90;;;;;;5090949;28;20192;-74
2021/04/26 05:15:35;;;;;;;8.67;6.57;;;5.30;99.90;;;;;;5087710;28;20275;-74
2021/04/26 05:18:01;;;;;;;8.17;6.40;;;5.50;99.90;;;;;;5091033;28;20856;-74
2021/04/26 05:20:27;;;;;;;8.23;5.80;;;5.70;99.90;;;;;;5083369;28;20228;-74
2021/04/26 05:22:53;;;;;;;7.20;5.87;;;6.00;99.90;;;;;;5089284;28;20228;-74
2021/04/26 05:25:19;;;;;;;8.07;5.93;;;6.20;99.90;;;;;;5083244;28;20472;-76
2021/04/26 05:27:45;;;;;;;14.40;5.97;;;6.30;99.90;;;;;;5089703;28;20832;-76
2021/04/26 05:30:11;;;;;;;8.20;6.60;;;6.50;99.90;;;;;;5072735;28;20205;-76
2021/04/26 05:32:37;;;;;;;6.13;5.53;;;6.90;99.90;;;;;;5072103;28;20214;-76
2021/04/26 05:35:03;;;;;;;8.60;5.30;;;7.60;99.90;;;;;;5088758;28;20778;-76
2021/04/26 05:37:29;;;;;;;11.23;6.40;;;8.30;99.90;;;;;;5093788;28;20958;-76
2021/04/26 05:39:54;;;;;;;9.10;4.80;;;9.00;99.90;;;;;;5090336;28;20463;-75
2021/04/26 05:42:20;;;;;;;7.53;4.80;;;9.80;99.90;;;;;;5093886;28;20178;-75
2021/04/26 05:44:46;;;;;;;10.20;5.70;;;10.70;99.90;;;;;;5078847;28;20170;-74
2021/04/26 05:47:11;;;;;;;9.73;5.27;;;11.30;99.90;;;;;;5074058;28;20182;-75
2021/04/26 05:49:37;;;;;;;14.30;4.97;;;12.00;99.90;;;;;;5074500;28;20178;-75
2021/04/26 05:52:03;;;;;;;9.10;4.43;;;12.70;99.90;;;;;;5073337;28;20403;-75
2021/04/26 05:54:28;;;;;;;5.17;4.00;;;13.20;99.90;;;;;;5077550;28;20180;-75
2021/04/26 05:56:54;;;;;;;8.97;4.03;;;13.80;99.90;;;;;;5086008;28;20439;-75
2021/04/26 05:59:20;;;;;;;4.77;3.90;;;14.30;98.40;;;;;;5074220;28;20184;-75
2021/04/26 06:01:45;;;;;;;5.53;4.07;;;14.80;93.70;;;;;;5092831;28;20180;-75
2021/04/26 06:04:11;;;;;;;6.37;4.50;;;15.20;92.10;;;;;;5084300;28;20197;-75
2021/04/26 06:06:37;;;;;;;9.20;4.33;;;15.60;90.10;;;;;;5091617;28;20818;-75
2021/04/26 06:09:03;;;;;;;7.83;4.83;;;15.80;79.10;;;;;;5084530;28;20174;-75
2021/04/26 06:11:28;;;;;;;5.83;4.43;;;16.00;76.40;;;;;;5090441;28;20185;-75
2021/04/26 06:13:54;;;;;;;9.40;4.30;;;16.30;75.80;;;;;;5071992;28;20197;-76
2021/04/26 06:16:19;;;;;;;6.10;3.50;;;16.70;73.50;;;;;;5082787;28;20206;-75
2021/04/26 06:18:45;;;;;;;4.27;3.07;;;17.00;67.80;;;;;;5082896;28;20174;-76
2021/04/26 06:21:10;;;;;;;3.40;2.93;;;16.80;65.30;;;;;;5089259;28;20226;-76
2021/04/26 06:23:36;;;;;;;4.10;3.70;;;17.30;64.90;;;;;;5089796;28;20316;-76
2021/04/26 06:26:02;;;;;;;9.63;3.90;;;17.50;61.00;;;;;;5069008;28;20181;-76
2021/04/26 06:28:27;;;;;;;12.10;3.90;;;17.70;60.70;;;;;;5087460;28;20188;-76
2021/04/26 06:30:53;;;;;;;4.23;3.10;;;16.60;56.40;;;;;;5075843;28;20192;-76
2021/04/26 06:33:19;;;;;;;6.80;4.00;;;16.70;59.10;;;;;;5089682;28;20255;-76
2021/04/26 06:35:46;;;;;;;5.93;4.00;;;16.80;57.40;;;;;;5073738;28;20166;-76
2021/04/26 06:38:12;;;;;;;5.40;3.87;;;15.90;57.50;;;;;;5072512;28;20167;-76
2021/04/26 06:40:38;;;;;;;5.60;4.63;;;15.30;59.60;;;;;;5082984;28;20881;-76
2021/04/26 06:43:04;;;;;;;8.93;4.37;;;14.90;60.80;;;;;;5091202;28;20701;-76
2021/04/26 06:45:30;;;;;;;4.07;3.67;;;15.30;63.50;;;;;;5088374;28;20793;-76
2021/04/26 06:47:56;;;;;;;11.20;4.73;;;15.30;61.10;;;;;;5074738;28;20439;-76
2021/04/26 06:50:23;;;;;;;5.67;4.30;;;15.90;62.50;;;;;;5081433;28;20227;-76
2021/04/26 06:52:49;;;;;;;5.97;4.50;;;15.70;59.90;;;;;;5086744;28;20711;-76
2021/04/26 06:55:16;;;;;;;11.50;4.40;;;16.00;60.30;;;;;;5088004;28;20427;-76
2021/04/26 06:57:43;;;;;;;8.33;5.10;;;16.90;62.90;;;;;;5093163;28;20494;-76
2021/04/26 07:00:10;;;;;;;7.63;5.70;;;17.30;60.90;;;;;;5091221;28;20447;-76
2021/04/26 07:02:36;;;;;;;4.83;4.30;;;17.10;58.80;;;;;;5093994;28;20809;-76
2021/04/26 07:05:03;;;;;;;11.33;4.20;;;16.80;57.90;;;;;;5079699;28;20420;-76
2021/04/26 07:07:29;;;;;;;16.17;4.57;;;16.70;57.00;;;;;;5072534;28;20945;-76
2021/04/26 07:09:54;;;;;;;6.17;4.70;;;17.20;57.50;;;;;;5076405;28;20434;-77
2021/04/26 07:12:20;;;;;;;11.47;4.60;;;17.20;57.50;;;;;;5083058;28;20202;-76
2021/04/26 07:14:46;;;;;;;7.70;4.63;;;18.20;57.20;;;;;;5075684;28;20199;-77
2021/04/26 07:17:12;;;;;;;5.67;4.47;;;18.00;57.50;;;;;;5081538;28;20193;-77
2021/04/26 07:19:37;;;;;;;20.23;4.80;;;18.50;55.10;;;;;;5086076;28;20204;-77
2021/04/26 07:22:03;;;;;;;11.80;5.40;;;17.80;53.90;;;;;;5087681;28;20247;-77
2021/04/26 07:24:29;;;;;;;5.03;4.47;;;18.60;56.40;;;;;;5076653;28;20443;-77
2021/04/26 07:26:55;;;;;;;8.90;3.87;;;18.30;53.10;;;;;;5087415;28;20200;-77
2021/04/26 07:29:20;;;;;;;12.43;4.80;;;17.90;52.30;;;;;;5090142;28;20184;-77
2021/04/26 07:31:46;;;;;;;9.83;4.80;;;18.10;51.40;;;;;;5090927;28;20174;-77
2021/04/26 07:34:12;;;;;;;8.70;5.37;;;17.60;51.90;;;;;;5084342;28;20743;-77
2021/04/26 07:36:38;;;;;;;6.30;4.40;;;18.50;52.90;;;;;;5075573;28;20522;-77
2021/04/26 07:39:04;;;;;;;8.90;3.90;;;19.20;52.50;;;;;;5093990;28;20981;-77
2021/04/26 07:41:30;;;;;;;8.63;2.70;;;19.60;50.30;;;;;;5092029;28;20632;-77
2021/04/26 07:43:56;;;;;;;5.27;2.50;;;19.40;45.60;;;;;;5082533;28;20443;-77
2021/04/26 07:46:21;;;;;;;5.10;3.83;;;19.20;45.50;;;;;;5095932;28;20174;-78
2021/04/26 07:48:47;;;;;;;4.67;2.80;;;19.40;48.40;;;;;;5097911;28;20686;-78
2021/04/26 07:51:13;;;;;;;5.17;2.83;;;19.80;46.30;;;;;;5074517;28;20197;-77
2021/04/26 07:53:38;;;;;;;3.80;2.80;;;19.50;43.40;;;;;;5075086;28;20198;-77
2021/04/26 07:56:04;;;;;;;2.43;2.23;;;19.20;44.40;;;;;;5080149;28;20261;-78
2021/04/26 07:58:30;;;;;;;3.27;2.60;;;19.50;43.00;;;;;;5089912;28;20265;-77
2021/04/26 08:00:57;;;;;;;4.70;2.30;;;19.40;41.50;;;;;;5083938;28;20454;-77
2021/04/26 08:03:23;;;;;;;3.07;2.07;;;18.50;41.10;;;;;;5080758;28;20204;-78
2021/04/26 08:05:48;;;;;;;8.50;2.63;;;18.10;39.80;;;;;;5078590;28;20498;-77
2021/04/26 08:08:14;;;;;;;5.47;3.00;;;17.30;40.30;;;;;;5086012;28;20179;-78
2021/04/26 08:10:39;;;;;;;3.90;2.30;;;17.70;43.10;;;;;;5077855;28;20265;-78
2021/04/26 08:13:07;;;;;;;4.07;2.30;;;18.10;44.40;;;;;;5079802;28;20206;-78
2021/04/26 08:15:32;;;;;;;1.80;1.50;;;18.80;41.80;;;;;;5080582;28;20197;-77
2021/04/26 08:17:58;;;;;;;4.13;1.83;;;18.80;40.30;;;;;;5076396;28;20440;-78
2021/04/26 08:20:23;;;;;;;2.43;1.97;;;19.30;43.60;;;;;;5086528;28;20220;-78
2021/04/26 08:22:49;;;;;;;2.10;1.70;;;19.40;40.40;;;;;;5084651;28;20201;-78
2021/04/26 08:25:15;;;;;;;5.57;2.40;;;19.80;40.50;;;;;;5086301;28;20174;-78
2021/04/26 08:27:40;;;;;;;3.83;2.00;;;19.50;38.50;;;;;;5090351;28;20173;-78
2021/04/26 08:30:07;;;;;;;2.00;1.90;;;19.50;39.30;;;;;;5079908;28;20645;-78
2021/04/26 08:32:33;;;;;;;2.57;1.97;;;19.60;39.10;;;;;;5099199;28;20605;-78
2021/04/26 08:34:59;;;;;;;4.70;2.30;;;19.20;39.50;;;;;;5093874;28;20427;-78
2021/04/26 08:37:25;;;;;;;2.97;1.93;;;19.00;38.80;;;;;;5095221;28;20443;-78
2021/04/26 08:39:50;;;;;;;3.33;2.20;;;19.30;40.20;;;;;;5088128;28;20222;-78
2021/04/26 08:42:17;;;;;;;2.40;2.00;;;18.70;39.80;;;;;;5096707;28;20198;-78
2021/04/26 08:44:43;;;;;;;2.50;1.80;;;18.90;40.70;;;;;;5085714;28;20166;-78
2021/04/26 08:47:10;;;;;;;3.23;2.17;;;18.80;39.40;;;;;;5096648;28;20427;-78
2021/04/26 08:49:36;;;;;;;2.53;1.73;;;18.60;38.70;;;;;;5096585;28;20469;-78
2021/04/26 08:52:02;;;;;;;1.80;1.50;;;19.00;38.90;;;;;;5088306;28;20448;-78
2021/04/26 08:54:28;;;;;;;2.27;1.70;;;19.50;38.10;;;;;;5085895;28;20439;-78
2021/04/26 08:56:53;;;;;;;1.77;1.60;;;19.80;37.90;;;;;;5093543;28;20427;-78
2021/04/26 08:59:19;;;;;;;3.30;1.80;;;20.00;38.30;;;;;;5098745;28;20530;-77
2021/04/26 09:01:48;;;;;;;3.50;1.90;;;20.00;37.90;;;;;;5092605;28;20209;-78
2021/04/26 09:04:14;;;;;;;1.73;1.40;;;20.20;39.00;;;;;;5075461;28;20229;-78
2021/04/26 09:07:03;;;;;;;3.60;2.00;;;20.30;37.50;;;;;;5077044;28;20416;-78
2021/04/26 09:09:35;;;;;;;3.47;1.97;;;20.00;36.90;;;;;;5107854;28;20174;-78
2021/04/26 09:12:02;;;;;;;1.97;1.60;;;20.50;38.10;;;;;;5092341;28;20434;-78
2021/04/26 09:14:45;;;;;;;5.43;1.90;;;19.90;35.80;;;;;;5097705;28;20427;-78
2021/04/26 09:17:35;;;;;;;3.00;2.40;;;20.20;38.70;;;;;;5089921;28;20411;-78
2021/04/26 09:20:03;;;;;;;1.87;1.77;;;20.30;36.90;;;;;;5076844;28;20453;-78
2021/04/26 09:22:49;;;;;;;2.17;1.70;;;20.80;37.30;;;;;;5082567;28;20502;-79
2021/04/26 09:25:20;;;;;;;3.37;1.70;;;21.40;38.10;;;;;;5092433;28;21045;-79
2021/04/26 09:28:13;;;;;;;2.67;2.03;;;21.40;35.40;;;;;;5086614;28;20573;-78
2021/04/26 09:30:42;;;;;;;2.43;2.13;;;21.40;35.70;;;;;;5078247;28;20459;-78
2021/04/26 09:33:21;;;;;;;2.20;1.80;;;21.80;37.20;;;;;;5086101;28;20538;-77
2021/04/26 09:36:01;;;;;;;2.07;1.80;;;21.70;36.40;;;;;;5057520;28;20428;-78
2021/04/26 09:38:28;;;;;;;4.60;2.40;;;21.20;35.30;;;;;;5082588;28;21020;-78
2021/04/26 09:41:08;;;;;;;2.20;1.83;;;21.30;34.60;;;;;;5082274;28;20536;-79
2021/04/26 09:43:34;;;;;;;2.87;2.03;;;21.60;35.30;;;;;;5082953;28;20435;-79
2021/04/26 09:46:00;;;;;;;3.80;2.10;;;21.90;35.20;;;;;;5086913;28;20426;-79
2021/04/26 09:48:27;;;;;;;5.07;2.50;;;22.30;35.90;;;;;;5077219;28;20432;-79
2021/04/26 09:51:01;;;;;;;2.13;1.70;;;22.20;34.10;;;;;;5079889;28;20568;-79
2021/04/26 09:53:44;;;;;;;1.83;1.43;;;22.40;33.10;;;;;;5077560;28;20455;-79
2021/04/26 09:56:21;;;;;;;6.37;1.90;;;22.20;34.60;;;;;;5075712;28;21173;-79
2021/04/26 09:58:52;;;;;;;2.10;1.93;;;22.40;35.20;;;;;;5077410;28;20452;-79
2021/04/26 10:01:19;;;;;;;6.20;2.20;;;22.30;35.10;;;;;;5053724;28;20428;-79
2021/04/26 10:03:44;;;;;;;2.60;2.23;;;22.30;35.40;;;;;;5080667;28;20185;-77
2021/04/26 10:06:13;;;;;;;2.93;1.87;;;22.10;36.30;;;;;;5094418;28;20424;-77
2021/04/26 10:08:39;;;;;;;3.90;2.30;;;22.10;37.70;;;;;;5091583;28;20409;-78
2021/04/26 10:11:05;;;;;;;3.53;2.53;;;22.30;34.30;;;;;;5073813;28;20174;-78
2021/04/26 10:13:32;;;;;;;2.60;2.20;;;22.70;36.30;;;;;;5063399;28;20683;-78
2021/04/26 10:16:03;;;;;;;1.80;1.70;;;22.90;35.30;;;;;;5069124;28;20214;-75
2021/04/26 10:18:41;;;;;;;2.37;2.17;;;22.80;34.50;;;;;;5066711;28;20450;-77
2021/04/26 10:21:19;;;;;;;2.20;1.60;;;23.00;33.80;;;;;;5087652;28;20458;-77
2021/04/26 10:24:13;;;;;;;2.70;2.00;;;22.80;33.50;;;;;;5095935;28;20464;-77
2021/04/26 10:26:43;;;;;;;2.83;2.30;;;22.60;33.30;;;;;;5072973;28;20458;-77
2021/04/26 10:29:24;;;;;;;2.50;1.80;;;22.00;34.00;;;;;;5080090;28;20787;-76
2021/04/26 10:32:05;;;;;;;2.57;2.00;;;21.80;33.70;;;;;;5072770;28;20442;-81
2021/04/26 10:34:42;;;;;;;4.00;1.80;;;21.90;32.40;;;;;;5072637;28;20412;-77
2021/04/26 10:37:16;;;;;;;3.47;2.47;;;22.30;33.80;;;;;;5080283;28;21016;-76
2021/04/26 10:40:03;;;;;;;2.20;2.10;;;21.80;30.90;;;;;;5081812;28;20445;-78
2021/04/26 10:42:47;;;;;;;2.87;1.87;;;22.10;32.00;;;;;;5070939;28;20460;-77
2021/04/26 10:45:13;;;;;;;3.73;2.17;;;22.50;33.10;;;;;;5064936;28;20416;-72
2021/04/26 10:47:59;;;;;;;5.43;2.13;;;23.10;33.60;;;;;;5072011;28;20458;-75
2021/04/26 10:50:24;;;;;;;8.63;2.20;;;23.50;34.30;;;;;;5064175;28;20298;-75
2021/04/26 10:52:50;;;;;;;4.50;1.90;;;23.60;34.00;;;;;;5071514;28;20528;-73
2021/04/26 10:55:19;;;;;;;22.57;19.20;;;23.70;32.40;;;;;;5070942;28;20757;-78
2021/04/26 10:57:56;;;;;;;3.93;2.90;;;22.90;31.90;;;;;;5060428;28;20425;-80
2021/04/26 11:00:31;;;;;;;2.93;2.10;;;23.60;35.00;;;;;;5061878;28;20452;-79
2021/04/26 11:03:06;;;;;;;2.60;2.00;;;23.40;32.90;;;;;;5050945;28;20437;-77
2021/04/26 11:05:35;;;;;;;3.90;1.93;;;23.30;32.80;;;;;;5063841;28;20980;-82
2021/04/26 11:08:11;;;;;;;2.80;2.47;;;23.30;32.50;;;;;;5070531;28;20421;-75
2021/04/26 11:10:41;;;;;;;7.23;3.70;;;23.00;32.80;;;;;;5071052;28;20416;-75
2021/04/26 11:13:29;;;;;;;2.63;2.23;;;23.40;34.40;;;;;;5072838;28;20424;-79
2021/04/26 11:16:18;;;;;;;2.60;2.10;;;23.60;33.80;;;;;;5072602;28;20423;-79
2021/04/26 11:18:52;;;;;;;1.83;1.63;;;23.90;33.80;;;;;;5072231;28;20852;-78
2021/04/26 11:21:44;;;;;;;1.60;1.50;;;23.10;31.40;;;;;;5073073;28;20450;-79
2021/04/26 11:24:10;;;;;;;1.87;1.77;;;22.70;32.50;;;;;;5081024;28;20425;-80
2021/04/26 11:26:36;;;;;;;2.67;1.87;;;22.70;31.80;;;;;;5082703;28;20412;-80
2021/04/26 11:29:02;;;;;;;2.07;1.83;;;22.70;34.30;;;;;;5082334;28;20409;-79
2021/04/26 11:31:43;;;;;;;1.73;1.53;;;22.80;32.60;;;;;;5077308;28;20174;-79
2021/04/26 11:34:16;;;;;;;4.57;2.30;;;23.00;35.70;;;;;;5074963;28;20201;-78
2021/04/26 11:37:00;;;;;;;2.47;1.93;;;23.50;33.30;;;;;;5075145;28;20786;-79
2021/04/26 11:39:34;;;;;;;2.30;2.03;;;23.80;33.40;;;;;;5074549;28;20828;-78
2021/04/26 11:42:00;;;;;;;4.10;2.20;;;23.70;32.40;;;;;;5079761;28;20439;-78
2021/04/26 11:44:31;;;;;;;4.20;2.10;;;23.40;32.70;;;;;;5083187;28;20393;-78
2021/04/26 11:47:11;;;;;;;3.00;2.33;;;23.50;33.70;;;;;;5078484;28;20408;-78
2021/04/26 11:49:47;;;;;;;2.60;2.40;;;23.40;33.80;;;;;;5084072;28;20460;-79
2021/04/26 11:52:21;;;;;;;2.13;1.93;;;23.60;33.80;;;;;;5082294;28;20423;-79
2021/04/26 11:54:52;;;;;;;3.93;2.17;;;23.90;33.00;;;;;;5081501;28;20423;-79
2021/04/26 11:57:20;;;;;;;9.90;3.93;;;23.60;32.70;;;;;;5076968;28;20399;-79
2021/04/26 11:59:52;;;;;;;7.90;2.37;;;24.00;34.30;;;;;;5057241;28;20455;-79
2021/04/26 12:02:31;;;;;;;4.00;2.73;;;24.20;34.00;;;;;;5054862;28;20429;-77
2021/04/26 12:05:09;;;;;;;6.33;3.47;;;24.50;32.70;;;;;;5057506;28;20432;-79
2021/04/26 12:07:35;;;;;;;2.73;2.33;;;24.90;33.10;;;;;;5073810;28;20466;-79
2021/04/26 12:10:07;;;;;;;2.53;2.30;;;24.80;30.30;;;;;;5076572;28;20412;-80
2021/04/26 12:12:34;;;;;;;5.00;2.40;;;24.80;32.30;;;;;;5080186;28;20522;-79
2021/04/26 12:15:07;;;;;;;3.93;2.20;;;24.00;30.40;;;;;;5079356;28;20503;-78
2021/04/26 12:17:35;;;;;;;3.40;2.23;;;23.90;31.40;;;;;;5078104;28;20511;-79
2021/04/26 12:20:09;;;;;;;4.03;2.10;;;23.70;30.60;;;;;;5079968;28;20456;-79
2021/04/26 12:22:35;;;;;;;2.63;1.70;;;24.20;32.30;;;;;;5079901;28;20417;-78
2021/04/26 12:25:05;;;;;;;3.00;2.10;;;23.80;31.30;;;;;;5079333;28;20412;-78
2021/04/26 12:27:31;;;;;;;4.47;2.43;;;23.60;32.30;;;;;;5077925;28;20416;-78
2021/04/26 12:30:09;;;;;;;2.60;2.40;;;23.60;32.40;;;;;;5077122;28;20424;-80
2021/04/26 12:32:35;;;;;;;3.47;2.13;;;23.60;31.30;;;;;;5077672;28;20593;-78
2021/04/26 12:35:04;;;;;;;3.93;2.80;;;23.60;32.10;;;;;;5077679;28;20416;-79
2021/04/26 12:37:41;;;;;;;7.23;3.43;;;23.60;31.60;;;;;;5080485;28;20666;-78
2021/04/26 12:40:18;;;;;;;4.17;2.70;;;23.80;33.10;;;;;;5074874;28;20999;-77
2021/04/26 12:42:47;;;;;;;2.73;2.47;;;23.10;31.80;;;;;;5074181;28;20964;-77
2021/04/26 12:45:16;;;;;;;2.70;2.50;;;23.40;32.20;;;;;;5073734;28;20978;-78
2021/04/26 12:47:59;;;;;;;3.07;2.77;;;23.60;33.30;;;;;;5073692;28;20424;-78
2021/04/26 12:50:28;;;;;;;3.77;3.47;;;23.40;33.10;;;;;;5078934;28;20963;-76
2021/04/26 12:53:07;;;;;;;2.70;2.50;;;23.80;33.10;;;;;;5069929;28;20472;-78
2021/04/26 12:55:39;;;;;;;4.13;3.47;;;23.00;33.30;;;;;;5075090;28;20433;-77